sensor_id;sensor_type;location;lat;lon;timestamp;temperature;humidity
35395;DHT22;21500;45.308;9.488;2022-08-01T06:24:29;26.30;99.90
35395;DHT22;21500;45.308;9.488;2022-08-01T06:27:45;26.40;99.90
35395;DHT22;21500;45.308;9.488;2022-08-01T06:50:06;27.00;99.90
35395;DHT22;21500;45.308;9.488;2022-08-01T06:55:21;27.20;99.90
35395;DHT22;21500;45.308;9.488;2022-08-01T06:57:51;27.20;99.90
35395;DHT22;21500;45.308;9.488;2022-08-01T07:00:22;27.30;99.90
35395;DHT22;21500;45.308;9.488;2022-08-01T07:02:53;27.30;99.90
35395;DHT22;21500;45.308;9.488;2022-08-01T07:05:19;27.30;99.90
35395;DHT22;21500;45.308;9.488;2022-08-01T07:07:45;27.30;99.90
35395;DHT22;21500;45.308;9.488;2022-08-01T07:10:11;27.40;99.90
35395;DHT22;21500;45.308;9.488;2022-08-01T07:12:37;27.40;99.90
35395;DHT22;21500;45.308;9.488;2022-08-01T07:15:07;27.50;99.90
35395;DHT22;21500;45.308;9.488;2022-08-01T07:17:40;27.50;99.90
35395;DHT22;21500;45.308;9.488;2022-08-01T07:20:08;27.60;99.90
35395;DHT22;21500;45.308;9.488;2022-08-01T07:22:34;27.40;99.90
35395;DHT22;21500;45.308;9.488;2022-08-01T07:24:59;27.50;99.90
35395;DHT22;21500;45.308;9.488;2022-08-01T07:27:25;27.60;99.90
35395;DHT22;21500;45.308;9.488;2022-08-01T07:29:51;27.80;99.90
35395;DHT22;21500;45.308;9.488;2022-08-01T07:32:17;27.80;99.90
35395;DHT22;21500;45.308;9.488;2022-08-01T10:41:03;32.10;99.60
35395;DHT22;21500;45.308;9.488;2022-08-01T10:43:29;32.20;99.80
35395;DHT22;21500;45.308;9.488;2022-08-01T10:45:55;32.20;99.00
35395;DHT22;21500;45.308;9.488;2022-08-01T10:48:35;32.20;99.40
35395;DHT22;21500;45.308;9.488;2022-08-01T10:51:04;32.30;99.30
35395;DHT22;21500;45.308;9.488;2022-08-01T10:53:30;32.40;99.20
35395;DHT22;21500;45.308;9.488;2022-08-01T10:58:24;32.30;98.10
35395;DHT22;21500;45.308;9.488;2022-08-01T11:01:25;32.10;98.20
35395;DHT22;21500;45.308;9.488;2022-08-01T11:03:56;32.30;98.50
35395;DHT22;21500;45.308;9.488;2022-08-01T11:06:23;32.60;97.70
35395;DHT22;21500;45.308;9.488;2022-08-01T11:08:52;32.60;97.90
35395;DHT22;21500;45.308;9.488;2022-08-01T11:11:20;32.30;97.20
35395;DHT22;21500;45.308;9.488;2022-08-01T11:14:02;32.20;97.50
35395;DHT22;21500;45.308;9.488;2022-08-01T11:16:39;32.00;97.40
35395;DHT22;21500;45.308;9.488;2022-08-01T11:19:07;32.20;97.80
35395;DHT22;21500;45.308;9.488;2022-08-01T11:27:17;32.60;96.40
35395;DHT22;21500;45.308;9.488;2022-08-01T11:32:54;32.40;94.90
35395;DHT22;21500;45.308;9.488;2022-08-01T11:35:24;32.60;94.60
35395;DHT22;21500;45.308;9.488;2022-08-01T11:38:25;32.90;94.10
35395;DHT22;21500;45.308;9.488;2022-08-01T12:02:23;33.30;89.20
35395;DHT22;21500;45.308;9.488;2022-08-01T12:42:00;33.90;86.00
35395;DHT22;21500;45.308;9.488;2022-08-01T12:59:01;33.30;88.30
35395;DHT22;21500;45.308;9.488;2022-08-01T13:06:57;33.30;87.10
35395;DHT22;21500;45.308;9.488;2022-08-01T13:09:48;33.10;88.60
35395;DHT22;21500;45.308;9.488;2022-08-01T13:12:17;33.60;88.60
35395;DHT22;21500;45.308;9.488;2022-08-01T13:14:51;33.70;88.00
35395;DHT22;21500;45.308;9.488;2022-08-01T18:22:20;32.60;84.10
35395;DHT22;21500;45.308;9.488;2022-08-01T18:24:49;32.50;84.30
35395;DHT22;21500;45.308;9.488;2022-08-01T18:27:15;32.50;84.40
35395;DHT22;21500;45.308;9.488;2022-08-01T18:29:45;32.50;84.80
35395;DHT22;21500;45.308;9.488;2022-08-01T18:32:10;32.40;84.90
35395;DHT22;21500;45.308;9.488;2022-08-01T18:34:36;32.30;86.00
35395;DHT22;21500;45.308;9.488;2022-08-01T18:37:02;32.10;86.50
35395;DHT22;21500;45.308;9.488;2022-08-01T18:39:28;32.10;86.00
35395;DHT22;21500;45.308;9.488;2022-08-01T18:41:53;32.00;86.90
35395;DHT22;21500;45.308;9.488;2022-08-01T18:44:21;32.00;86.40
35395;DHT22;21500;45.308;9.488;2022-08-01T18:46:48;31.90;86.70
35395;DHT22;21500;45.308;9.488;2022-08-01T18:49:14;31.80;87.50
35395;DHT22;21500;45.308;9.488;2022-08-01T18:51:40;31.80;88.20
35395;DHT22;21500;45.308;9.488;2022-08-01T18:54:07;31.70;88.00
35395;DHT22;21500;45.308;9.488;2022-08-01T18:56:33;31.70;88.40
35395;DHT22;21500;45.308;9.488;2022-08-01T18:59:00;31.60;88.80
35395;DHT22;21500;45.308;9.488;2022-08-01T19:01:26;31.70;88.30
35395;DHT22;21500;45.308;9.488;2022-08-01T19:03:52;31.60;88.40
35395;DHT22;21500;45.308;9.488;2022-08-01T19:06:20;31.60;88.80
35395;DHT22;21500;45.308;9.488;2022-08-01T19:08:48;31.50;88.70
35395;DHT22;21500;45.308;9.488;2022-08-01T19:11:14;31.50;88.60
35395;DHT22;21500;45.308;9.488;2022-08-01T19:13:40;31.40;88.90
35395;DHT22;21500;45.308;9.488;2022-08-01T19:16:07;31.40;89.20
35395;DHT22;21500;45.308;9.488;2022-08-01T19:21:14;31.30;89.30
35395;DHT22;21500;45.308;9.488;2022-08-01T19:23:46;31.20;89.30
35395;DHT22;21500;45.308;9.488;2022-08-01T19:26:32;31.20;89.20
35395;DHT22;21500;45.308;9.488;2022-08-01T19:29:08;31.20;89.40
35395;DHT22;21500;45.308;9.488;2022-08-01T19:31:38;31.20;89.70
35395;DHT22;21500;45.308;9.488;2022-08-01T19:34:05;31.10;90.00
35395;DHT22;21500;45.308;9.488;2022-08-01T19:36:37;31.00;90.10
35395;DHT22;21500;45.308;9.488;2022-08-01T19:39:10;31.00;90.30
35395;DHT22;21500;45.308;9.488;2022-08-01T19:41:39;30.90;90.50
35395;DHT22;21500;45.308;9.488;2022-08-01T19:44:14;30.90;90.60
35395;DHT22;21500;45.308;9.488;2022-08-01T19:46:41;30.90;90.70
35395;DHT22;21500;45.308;9.488;2022-08-01T19:52:00;30.90;90.70
